createdAt,value
2022-11-10T00:05:02.153Z,4.1
2022-11-10T00:10:25.157Z,4.2
2022-11-10T00:15:46.919Z,4.3
2022-11-10T00:20:53.107Z,4.3
2022-11-10T00:26:15.756Z,4.3
2022-11-10T00:31:37.376Z,4.3
2022-11-10T00:36:59.584Z,4.3
2022-11-10T00:42:06.086Z,4.4
2022-11-10T00:47:28.084Z,4.4
2022-11-10T00:52:48.910Z,4.2
2022-11-10T00:57:55.289Z,4.2
2022-11-10T01:03:01.591Z,4.1
2022-11-10T01:08:24.289Z,3.8
2022-11-10T01:13:45.968Z,3.6
2022-11-10T01:19:10.510Z,3.6
2022-11-10T01:24:32.642Z,3.6
2022-11-10T01:29:54.921Z,3.4
2022-11-10T01:34:45.973Z,3.4
2022-11-10T01:39:51.927Z,3.4
2022-11-10T01:45:14.438Z,3.3
2022-11-10T01:50:36.218Z,3.4
2022-11-10T01:55:58.153Z,3.4
2022-11-10T02:01:35.730Z,3.6
2022-11-10T02:06:41.236Z,3.6
2022-11-10T02:12:18.815Z,3.5
2022-11-10T02:17:25.553Z,3.4
2022-11-10T02:23:02.063Z,3.6
2022-11-10T02:28:39.364Z,3.4
2022-11-10T02:34:17.298Z,3.3
2022-11-10T02:39:21.953Z,3.3
2022-11-10T02:44:58.515Z,3.1
2022-11-10T02:50:21.224Z,3
2022-11-10T02:55:57.950Z,2.9
2022-11-10T03:01:19.692Z,2.9
2022-11-10T03:06:47.514Z,2.9
2022-11-10T03:12:25.289Z,3
2022-11-10T03:18:23.814Z,2.9
2022-11-10T03:24:01.513Z,3.1
2022-11-10T03:29:37.752Z,3.3
2022-11-10T03:35:19.884Z,3.4
2022-11-10T03:41:04.152Z,3.6
2022-11-10T03:46:17.919Z,3.6
2022-11-10T03:52:01.315Z,3.6
2022-11-10T03:57:23.031Z,3.4
2022-11-10T04:02:28.958Z,3.2
2022-11-10T04:07:20.807Z,3.2
2022-11-10T04:12:43.203Z,3.2
2022-11-10T04:18:04.664Z,3.1
2022-11-10T04:23:26.245Z,2.9
2022-11-10T04:28:32.988Z,2.8
2022-11-10T04:33:39.905Z,2.9
2022-11-10T04:39:01.748Z,2.8
2022-11-10T04:44:23.493Z,2.7
2022-11-10T04:49:46.214Z,2.8
2022-11-10T04:55:08.772Z,2.8
2022-11-10T05:00:15.746Z,2.8
2022-11-10T05:05:38.575Z,2.6
2022-11-10T05:11:00.570Z,2.8
2022-11-10T05:15:51.797Z,2.7
2022-11-10T05:26:20.291Z,3
2022-11-10T05:31:42.302Z,2.9
2022-11-10T05:37:19.836Z,3
2022-11-10T05:42:59.077Z,2.9
2022-11-10T05:48:20.765Z,2.8
2022-11-10T05:53:59.187Z,2.8
2022-11-10T05:59:36.564Z,2.9
2022-11-10T06:05:14.925Z,2.9
2022-11-10T06:10:52.778Z,3.1
2022-11-10T06:16:30.036Z,3.3
2022-11-10T06:22:15.395Z,3.6
2022-11-10T06:27:53.709Z,3.9
2022-11-10T06:33:31.128Z,4.4
2022-11-10T06:39:15.669Z,4.7
2022-11-10T06:44:53.327Z,5.1
2022-11-10T06:50:31.260Z,5.5
2022-11-10T06:56:09.027Z,5.8
2022-11-10T07:01:50.710Z,5.9
2022-11-10T07:08:00.269Z,6.2
2022-11-10T07:13:38.696Z,6.4
2022-11-10T07:19:01.075Z,6.7
2022-11-10T07:24:45.197Z,6.7
2022-11-10T07:30:27.717Z,7.3
2022-11-10T07:36:10.594Z,7.6
2022-11-10T07:41:52.222Z,7.8
2022-11-10T07:47:30.188Z,8.3
2022-11-10T07:53:07.778Z,8.8
2022-11-10T07:58:45.478Z,8.8
2022-11-10T08:04:28.339Z,9.1
2022-11-10T08:10:06.689Z,9
2022-11-10T08:15:28.832Z,9.3
2022-11-10T08:21:10.409Z,9
2022-11-10T08:26:48.743Z,9.9
2022-11-10T08:32:33.746Z,10.2
2022-11-10T08:38:12.367Z,10.9
2022-11-10T08:44:11.097Z,11.6
2022-11-10T08:49:49.040Z,12.3
2022-11-10T08:55:27.642Z,12.6
2022-11-10T09:01:10.893Z,12.4
2022-11-10T09:06:49.487Z,13.1
2022-11-10T09:12:42.595Z,13.4
2022-11-10T09:18:05.993Z,13.6
2022-11-10T09:23:50.886Z,14.1
2022-11-10T09:29:19.986Z,14.8
2022-11-10T09:35:09.546Z,14.9
2022-11-10T09:40:51.467Z,15.1
2022-11-10T09:46:30.325Z,15.1
2022-11-10T09:52:39.631Z,14.7
2022-11-10T09:58:22.187Z,15.4
2022-11-10T10:03:59.758Z,15.8
2022-11-10T10:10:06.249Z,16.1
2022-11-10T10:15:44.651Z,13.9
2022-11-10T10:21:25.888Z,13.4
2022-11-10T10:27:45.396Z,16.1
2022-11-10T10:33:22.684Z,15.3
2022-11-10T10:39:06.193Z,17.3
2022-11-10T10:44:47.956Z,15.4
2022-11-10T10:50:59.082Z,17.7
2022-11-10T10:56:36.484Z,17.9
2022-11-10T11:01:58.571Z,17.3
2022-11-10T11:07:37.008Z,17.1
2022-11-10T11:13:15.977Z,17.3
2022-11-10T11:18:44.654Z,17.1
2022-11-10T11:24:24.184Z,17.8
2022-11-10T11:30:02.511Z,18.3
2022-11-10T11:35:42.099Z,17.6
2022-11-10T11:41:25.665Z,17.7
2022-11-10T11:47:06.231Z,17.9
2022-11-10T11:52:28.484Z,18.3
2022-11-10T11:57:39.765Z,16.9
2022-11-10T12:02:31.868Z,17.8
2022-11-10T12:07:59.255Z,18.4
2022-11-10T12:13:06.690Z,18.1
2022-11-10T12:18:29.657Z,18.9
2022-11-10T12:23:41.416Z,18.1
2022-11-10T12:29:03.792Z,18.4
2022-11-10T12:34:11.601Z,19.1
2022-11-10T12:44:25.661Z,18.9
2022-11-10T12:49:48.708Z,19.1
2022-11-10T12:54:55.790Z,18.4
2022-11-10T13:00:02.083Z,18.6
2022-11-10T13:05:45.333Z,19.1
2022-11-10T13:11:13.208Z,19
2022-11-10T13:16:35.432Z,18.1
2022-11-10T13:21:59.806Z,18.5
2022-11-10T13:27:07.338Z,17.4
2022-11-10T13:32:29.904Z,18.1
2022-11-10T13:37:55.917Z,18.2
2022-11-10T13:43:20.342Z,17.6
2022-11-10T13:48:58.557Z,17.4
2022-11-10T14:00:04.416Z,16.8
2022-11-10T14:05:42.806Z,16.9
2022-11-10T14:11:21.369Z,17.3
2022-11-10T14:16:43.933Z,17.1
2022-11-10T14:22:28.368Z,16.8
2022-11-10T14:28:13.187Z,16.7
2022-11-10T14:33:51.830Z,16.2
2022-11-10T14:39:31.022Z,15.9
2022-11-10T14:45:09.825Z,15.4
2022-11-10T14:50:48.220Z,15.1
2022-11-10T14:56:28.092Z,14.8
2022-11-10T15:02:07.618Z,14.3
2022-11-10T15:07:53.305Z,14.1
2022-11-10T15:13:32.855Z,13.7
2022-11-10T15:19:11.764Z,13.4
2022-11-10T15:24:49.366Z,13.1
2022-11-10T15:30:28.354Z,12.8
2022-11-10T15:36:11.368Z,12.5
2022-11-10T15:41:42.255Z,12.1
2022-11-10T15:47:08.904Z,11.8
2022-11-10T15:52:53.081Z,11.4
2022-11-10T15:58:30.840Z,11.1
2022-11-10T16:09:16.827Z,10.9
2022-11-10T16:14:55.578Z,10.6
2022-11-10T16:20:18.634Z,10.5
2022-11-10T16:30:53.256Z,10.4
2022-11-10T16:36:00.496Z,10.4
2022-11-10T16:41:39.910Z,10.3
2022-11-10T16:47:03.086Z,10.4
2022-11-10T16:52:25.510Z,10.6
2022-11-10T16:57:37.198Z,10.4
2022-11-10T17:02:51.263Z,10.3
2022-11-10T17:07:59.157Z,10.2
2022-11-10T17:13:36.580Z,10.1
2022-11-10T17:18:44.538Z,10.1
2022-11-10T17:23:53.247Z,9.9
2022-11-10T17:29:06.214Z,9.4
2022-11-10T17:34:33.903Z,9.2
2022-11-10T17:39:57.992Z,8.9
2022-11-10T17:45:05.810Z,8.7
2022-11-10T17:50:33.143Z,8.4
2022-11-10T17:55:44.988Z,8.2
2022-11-10T18:00:52.363Z,7.8
2022-11-10T18:05:48.410Z,7.7
2022-11-10T18:11:27.448Z,7.5
2022-11-10T18:17:06.301Z,7.3
2022-11-10T18:22:48.200Z,7.2
2022-11-10T18:28:11.575Z,7.5
2022-11-10T18:33:49.650Z,7.4
2022-11-10T18:39:12.385Z,7.3
2022-11-10T18:44:53.453Z,7.3
2022-11-10T18:50:37.737Z,7.5
2022-11-10T18:56:18.582Z,7.4
2022-11-10T19:02:01.319Z,7.4
2022-11-10T19:07:28.490Z,7.4
2022-11-10T19:13:07.057Z,7.4
2022-11-10T19:18:30.679Z,7.4
2022-11-10T19:24:18.123Z,7.2
2022-11-10T19:30:18.217Z,7.2
2022-11-10T19:35:40.957Z,7.2
2022-11-10T19:41:19.971Z,7.1
2022-11-10T19:46:57.817Z,7
2022-11-10T19:52:37.119Z,6.8
2022-11-10T19:58:17.610Z,6.9
2022-11-10T20:03:58.895Z,6.8
2022-11-10T20:09:38.716Z,6.8
2022-11-10T20:15:23.148Z,6.9
2022-11-10T20:21:06.449Z,6.6
2022-11-10T20:26:35.617Z,6.6
2022-11-10T20:32:14.315Z,6.3
2022-11-10T20:37:53.021Z,6.2
2022-11-10T20:43:51.464Z,6
2022-11-10T20:49:48.942Z,5.9
2022-11-10T20:55:18.205Z,5.7
2022-11-10T21:01:17.730Z,5.6
2022-11-10T21:06:45.299Z,5.6
2022-11-10T21:12:23.672Z,5.6
2022-11-10T21:18:01.104Z,5.5
2022-11-10T21:23:24.221Z,5.6
2022-11-10T21:28:46.562Z,5.8
2022-11-10T21:34:13.391Z,5.6
2022-11-10T21:39:53.953Z,5.6
2022-11-10T21:45:32.864Z,5.7
2022-11-10T21:50:55.141Z,5.7
2022-11-10T21:56:33.523Z,5.7
2022-11-10T22:02:12.395Z,5.8
2022-11-10T22:07:50.117Z,5.3
2022-11-10T22:13:27.825Z,5.4
2022-11-10T22:18:51.115Z,5.6
2022-11-10T22:24:18.763Z,5.1
2022-11-10T22:30:01.493Z,4.9
2022-11-10T22:35:24.510Z,5.1
2022-11-10T22:40:48.197Z,5.1
2022-11-10T22:45:41.013Z,4.9
2022-11-10T22:51:02.950Z,5.1
2022-11-10T22:56:09.621Z,5.3
2022-11-10T23:01:52.713Z,5
2022-11-10T23:07:03.693Z,4.9
2022-11-10T23:12:41.147Z,4.7
2022-11-10T23:18:23.569Z,5
2022-11-10T23:23:45.651Z,5.4
2022-11-10T23:29:29.372Z,5.5
2022-11-10T23:35:07.937Z,5.6
2022-11-10T23:40:45.294Z,5.6
2022-11-10T23:46:38.299Z,5.7
2022-11-10T23:51:51.758Z,5.9
2022-11-10T23:57:13.845Z,5.9
